sensor_id;sensor_type;location;lat;lon;timestamp;temperature;humidity
18384;DHT22;9318;48.644;9.456;2024-02-26T00:01:27;8.30;99.90
18384;DHT22;9318;48.644;9.456;2024-02-26T00:03:55;8.20;99.90
18384;DHT22;9318;48.644;9.456;2024-02-26T00:06:25;8.30;99.90
18384;DHT22;9318;48.644;9.456;2024-02-26T00:08:51;8.20;99.90
18384;DHT22;9318;48.644;9.456;2024-02-26T00:11:18;8.20;99.90
18384;DHT22;9318;48.644;9.456;2024-02-26T00:13:45;8.20;99.90
18384;DHT22;9318;48.644;9.456;2024-02-26T00:16:12;8.20;99.90
18384;DHT22;9318;48.644;9.456;2024-02-26T00:18:38;8.20;99.90
18384;DHT22;9318;48.644;9.456;2024-02-26T00:21:06;8.10;99.90
18384;DHT22;9318;48.644;9.456;2024-02-26T00:23:33;8.10;99.90
18384;DHT22;9318;48.644;9.456;2024-02-26T00:26:00;8.10;99.90
18384;DHT22;9318;48.644;9.456;2024-02-26T00:28:26;8.10;99.90
18384;DHT22;9318;48.644;9.456;2024-02-26T00:30:54;8.20;99.90
18384;DHT22;9318;48.644;9.456;2024-02-26T00:33:22;8.10;99.90
18384;DHT22;9318;48.644;9.456;2024-02-26T00:35:49;8.10;99.90
18384;DHT22;9318;48.644;9.456;2024-02-26T00:38:17;8.10;99.90
18384;DHT22;9318;48.644;9.456;2024-02-26T00:40:44;8.10;99.90
18384;DHT22;9318;48.644;9.456;2024-02-26T00:43:10;8.10;99.90
18384;DHT22;9318;48.644;9.456;2024-02-26T00:45:37;8.00;99.90
18384;DHT22;9318;48.644;9.456;2024-02-26T00:48:05;8.10;99.90
18384;DHT22;9318;48.644;9.456;2024-02-26T00:50:32;8.00;99.90
18384;DHT22;9318;48.644;9.456;2024-02-26T00:52:59;8.10;99.90
18384;DHT22;9318;48.644;9.456;2024-02-26T00:55:27;8.00;99.90
18384;DHT22;9318;48.644;9.456;2024-02-26T00:57:54;8.10;99.90
18384;DHT22;9318;48.644;9.456;2024-02-26T01:00:21;8.00;99.90
18384;DHT22;9318;48.644;9.456;2024-02-26T01:02:48;8.00;99.90
18384;DHT22;9318;48.644;9.456;2024-02-26T01:05:15;8.00;99.90
18384;DHT22;9318;48.644;9.456;2024-02-26T01:07:42;8.00;99.90
18384;DHT22;9318;48.644;9.456;2024-02-26T01:10:10;7.90;99.90
18384;DHT22;9318;48.644;9.456;2024-02-26T01:12:38;7.90;99.90
18384;DHT22;9318;48.644;9.456;2024-02-26T01:15:05;7.90;99.90
18384;DHT22;9318;48.644;9.456;2024-02-26T01:17:32;7.80;99.90
18384;DHT22;9318;48.644;9.456;2024-02-26T01:19:59;7.80;99.90
18384;DHT22;9318;48.644;9.456;2024-02-26T01:22:26;7.80;99.90
18384;DHT22;9318;48.644;9.456;2024-02-26T01:24:52;7.80;99.90
18384;DHT22;9318;48.644;9.456;2024-02-26T01:27:19;7.80;99.90
18384;DHT22;9318;48.644;9.456;2024-02-26T01:29:47;7.70;99.90
18384;DHT22;9318;48.644;9.456;2024-02-26T01:32:14;7.70;99.90
18384;DHT22;9318;48.644;9.456;2024-02-26T01:34:41;7.70;99.90
18384;DHT22;9318;48.644;9.456;2024-02-26T01:37:07;7.70;99.90
18384;DHT22;9318;48.644;9.456;2024-02-26T01:39:36;7.60;99.90
18384;DHT22;9318;48.644;9.456;2024-02-26T01:42:03;7.60;99.90
18384;DHT22;9318;48.644;9.456;2024-02-26T01:44:30;7.60;99.90
18384;DHT22;9318;48.644;9.456;2024-02-26T01:46:58;7.60;99.90
18384;DHT22;9318;48.644;9.456;2024-02-26T01:49:27;7.60;99.90
18384;DHT22;9318;48.644;9.456;2024-02-26T01:51:55;7.60;99.90
18384;DHT22;9318;48.644;9.456;2024-02-26T01:54:22;7.60;99.90
18384;DHT22;9318;48.644;9.456;2024-02-26T01:56:50;7.70;99.90
18384;DHT22;9318;48.644;9.456;2024-02-26T01:59:17;7.70;99.90
18384;DHT22;9318;48.644;9.456;2024-02-26T02:01:45;7.70;99.90
18384;DHT22;9318;48.644;9.456;2024-02-26T02:04:16;7.70;99.90
18384;DHT22;9318;48.644;9.456;2024-02-26T02:06:45;7.60;99.90
18384;DHT22;9318;48.644;9.456;2024-02-26T02:09:12;7.60;99.90
18384;DHT22;9318;48.644;9.456;2024-02-26T02:11:39;7.60;99.90
18384;DHT22;9318;48.644;9.456;2024-02-26T02:14:06;7.50;99.90
18384;DHT22;9318;48.644;9.456;2024-02-26T02:16:33;7.50;99.90
18384;DHT22;9318;48.644;9.456;2024-02-26T02:19:00;7.50;99.90
18384;DHT22;9318;48.644;9.456;2024-02-26T02:21:28;7.40;99.90
18384;DHT22;9318;48.644;9.456;2024-02-26T02:23:54;7.40;99.90
18384;DHT22;9318;48.644;9.456;2024-02-26T02:26:21;7.40;99.90
18384;DHT22;9318;48.644;9.456;2024-02-26T02:28:49;7.40;99.90
18384;DHT22;9318;48.644;9.456;2024-02-26T02:31:16;7.40;99.90
18384;DHT22;9318;48.644;9.456;2024-02-26T02:33:43;7.40;99.90
18384;DHT22;9318;48.644;9.456;2024-02-26T02:36:10;7.40;99.90
18384;DHT22;9318;48.644;9.456;2024-02-26T02:38:38;7.30;99.90
18384;DHT22;9318;48.644;9.456;2024-02-26T02:41:15;7.40;99.90
18384;DHT22;9318;48.644;9.456;2024-02-26T02:43:42;7.40;99.90
18384;DHT22;9318;48.644;9.456;2024-02-26T02:46:08;7.40;99.90
18384;DHT22;9318;48.644;9.456;2024-02-26T02:48:37;7.30;99.90
18384;DHT22;9318;48.644;9.456;2024-02-26T02:51:04;7.30;99.90
18384;DHT22;9318;48.644;9.456;2024-02-26T02:53:31;7.40;99.90
18384;DHT22;9318;48.644;9.456;2024-02-26T02:55:59;7.40;99.90
18384;DHT22;9318;48.644;9.456;2024-02-26T02:58:26;7.30;99.90
18384;DHT22;9318;48.644;9.456;2024-02-26T03:00:53;7.30;99.90
18384;DHT22;9318;48.644;9.456;2024-02-26T03:03:20;7.40;99.90
18384;DHT22;9318;48.644;9.456;2024-02-26T03:05:49;7.30;99.90
18384;DHT22;9318;48.644;9.456;2024-02-26T03:08:16;7.30;99.90
18384;DHT22;9318;48.644;9.456;2024-02-26T03:10:44;7.30;99.90
18384;DHT22;9318;48.644;9.456;2024-02-26T03:13:12;7.30;99.90
18384;DHT22;9318;48.644;9.456;2024-02-26T03:15:39;7.20;99.90
18384;DHT22;9318;48.644;9.456;2024-02-26T03:18:06;7.20;99.90
18384;DHT22;9318;48.644;9.456;2024-02-26T03:20:33;7.20;99.90
18384;DHT22;9318;48.644;9.456;2024-02-26T03:23:00;7.10;99.90
18384;DHT22;9318;48.644;9.456;2024-02-26T03:25:26;7.10;99.90
18384;DHT22;9318;48.644;9.456;2024-02-26T03:27:53;7.10;99.90
18384;DHT22;9318;48.644;9.456;2024-02-26T03:30:21;7.10;99.90
18384;DHT22;9318;48.644;9.456;2024-02-26T03:32:48;7.10;99.90
18384;DHT22;9318;48.644;9.456;2024-02-26T03:35:15;7.10;99.90
18384;DHT22;9318;48.644;9.456;2024-02-26T03:37:41;7.10;99.90
18384;DHT22;9318;48.644;9.456;2024-02-26T03:40:09;7.10;99.90
18384;DHT22;9318;48.644;9.456;2024-02-26T03:42:38;7.00;99.90
18384;DHT22;9318;48.644;9.456;2024-02-26T03:45:06;7.00;99.90
18384;DHT22;9318;48.644;9.456;2024-02-26T03:47:34;7.00;99.90
18384;DHT22;9318;48.644;9.456;2024-02-26T03:50:01;7.00;99.90
18384;DHT22;9318;48.644;9.456;2024-02-26T03:52:29;7.10;99.90
18384;DHT22;9318;48.644;9.456;2024-02-26T03:54:56;7.10;99.90
18384;DHT22;9318;48.644;9.456;2024-02-26T03:57:23;7.10;99.90
18384;DHT22;9318;48.644;9.456;2024-02-26T03:59:49;7.10;99.90
18384;DHT22;9318;48.644;9.456;2024-02-26T04:02:16;7.00;99.90
18384;DHT22;9318;48.644;9.456;2024-02-26T04:04:46;7.10;99.90
18384;DHT22;9318;48.644;9.456;2024-02-26T04:07:13;7.10;99.90
18384;DHT22;9318;48.644;9.456;2024-02-26T04:09:39;7.10;99.90
18384;DHT22;9318;48.644;9.456;2024-02-26T04:12:07;7.20;99.90
18384;DHT22;9318;48.644;9.456;2024-02-26T04:14:35;7.20;99.90
18384;DHT22;9318;48.644;9.456;2024-02-26T04:17:02;7.30;99.90
18384;DHT22;9318;48.644;9.456;2024-02-26T04:19:29;7.20;99.90
18384;DHT22;9318;48.644;9.456;2024-02-26T04:21:57;7.10;99.90
18384;DHT22;9318;48.644;9.456;2024-02-26T04:24:24;7.10;99.90
18384;DHT22;9318;48.644;9.456;2024-02-26T04:26:50;7.00;99.90
18384;DHT22;9318;48.644;9.456;2024-02-26T04:29:17;6.90;99.90
18384;DHT22;9318;48.644;9.456;2024-02-26T04:31:44;6.90;99.90
18384;DHT22;9318;48.644;9.456;2024-02-26T04:34:12;6.90;99.90
18384;DHT22;9318;48.644;9.456;2024-02-26T04:36:39;6.90;99.90
18384;DHT22;9318;48.644;9.456;2024-02-26T04:39:07;6.90;99.90
18384;DHT22;9318;48.644;9.456;2024-02-26T04:41:33;6.80;99.90
18384;DHT22;9318;48.644;9.456;2024-02-26T04:44:00;6.80;99.90
18384;DHT22;9318;48.644;9.456;2024-02-26T04:46:27;6.80;99.90
18384;DHT22;9318;48.644;9.456;2024-02-26T04:48:54;6.70;99.90
18384;DHT22;9318;48.644;9.456;2024-02-26T04:51:21;6.60;99.90
18384;DHT22;9318;48.644;9.456;2024-02-26T04:53:48;6.70;99.90
18384;DHT22;9318;48.644;9.456;2024-02-26T04:56:16;6.70;99.90
18384;DHT22;9318;48.644;9.456;2024-02-26T04:58:42;6.60;99.90
18384;DHT22;9318;48.644;9.456;2024-02-26T05:01:09;6.60;99.90
18384;DHT22;9318;48.644;9.456;2024-02-26T05:03:36;6.60;99.90
18384;DHT22;9318;48.644;9.456;2024-02-26T05:06:04;6.60;99.90
18384;DHT22;9318;48.644;9.456;2024-02-26T05:08:31;6.60;99.90
18384;DHT22;9318;48.644;9.456;2024-02-26T05:10:59;6.70;99.90
18384;DHT22;9318;48.644;9.456;2024-02-26T05:13:27;6.80;99.90
18384;DHT22;9318;48.644;9.456;2024-02-26T05:15:54;6.80;99.90
18384;DHT22;9318;48.644;9.456;2024-02-26T05:18:22;6.80;99.90
18384;DHT22;9318;48.644;9.456;2024-02-26T05:20:49;6.70;99.90
18384;DHT22;9318;48.644;9.456;2024-02-26T05:23:15;6.70;99.90
18384;DHT22;9318;48.644;9.456;2024-02-26T05:25:42;6.70;99.90
18384;DHT22;9318;48.644;9.456;2024-02-26T05:28:11;6.70;99.90
18384;DHT22;9318;48.644;9.456;2024-02-26T05:30:39;6.70;99.90
18384;DHT22;9318;48.644;9.456;2024-02-26T05:33:06;6.70;99.90
18384;DHT22;9318;48.644;9.456;2024-02-26T05:35:32;6.70;99.90
18384;DHT22;9318;48.644;9.456;2024-02-26T05:37:59;6.60;99.90
18384;DHT22;9318;48.644;9.456;2024-02-26T05:40:26;6.60;99.90
18384;DHT22;9318;48.644;9.456;2024-02-26T05:42:53;6.50;99.90
18384;DHT22;9318;48.644;9.456;2024-02-26T05:45:19;6.50;99.90
18384;DHT22;9318;48.644;9.456;2024-02-26T05:47:48;6.50;99.90
18384;DHT22;9318;48.644;9.456;2024-02-26T05:50:15;6.50;99.90
18384;DHT22;9318;48.644;9.456;2024-02-26T05:52:42;6.50;99.90
18384;DHT22;9318;48.644;9.456;2024-02-26T05:55:09;6.50;99.90
18384;DHT22;9318;48.644;9.456;2024-02-26T05:57:36;6.50;99.90
18384;DHT22;9318;48.644;9.456;2024-02-26T06:00:03;6.60;99.90
18384;DHT22;9318;48.644;9.456;2024-02-26T06:02:30;6.60;99.90
18384;DHT22;9318;48.644;9.456;2024-02-26T06:04:58;6.70;99.90
18384;DHT22;9318;48.644;9.456;2024-02-26T06:07:25;6.70;99.90
18384;DHT22;9318;48.644;9.456;2024-02-26T06:09:52;6.70;99.90
18384;DHT22;9318;48.644;9.456;2024-02-26T06:12:19;6.70;99.90
18384;DHT22;9318;48.644;9.456;2024-02-26T06:14:46;6.70;99.90
18384;DHT22;9318;48.644;9.456;2024-02-26T06:17:12;6.60;99.90
18384;DHT22;9318;48.644;9.456;2024-02-26T06:19:39;6.60;99.90
18384;DHT22;9318;48.644;9.456;2024-02-26T06:22:08;6.60;99.90
18384;DHT22;9318;48.644;9.456;2024-02-26T06:24:34;6.60;99.90
18384;DHT22;9318;48.644;9.456;2024-02-26T06:27:01;6.60;99.90
18384;DHT22;9318;48.644;9.456;2024-02-26T06:29:28;6.60;99.90
18384;DHT22;9318;48.644;9.456;2024-02-26T06:31:54;6.70;99.90
18384;DHT22;9318;48.644;9.456;2024-02-26T06:34:21;6.80;99.90
18384;DHT22;9318;48.644;9.456;2024-02-26T06:36:48;6.80;99.90
18384;DHT22;9318;48.644;9.456;2024-02-26T06:39:16;6.80;99.90
18384;DHT22;9318;48.644;9.456;2024-02-26T06:41:43;6.70;99.90
18384;DHT22;9318;48.644;9.456;2024-02-26T06:44:12;6.70;99.90
18384;DHT22;9318;48.644;9.456;2024-02-26T06:46:39;6.70;99.90
18384;DHT22;9318;48.644;9.456;2024-02-26T06:49:06;6.60;99.90
18384;DHT22;9318;48.644;9.456;2024-02-26T06:51:33;6.60;99.90
18384;DHT22;9318;48.644;9.456;2024-02-26T06:54:00;6.60;99.90
18384;DHT22;9318;48.644;9.456;2024-02-26T06:56:28;6.70;99.90
18384;DHT22;9318;48.644;9.456;2024-02-26T06:58:54;6.70;99.90
18384;DHT22;9318;48.644;9.456;2024-02-26T07:01:21;6.70;99.90
18384;DHT22;9318;48.644;9.456;2024-02-26T07:03:48;6.70;99.90
18384;DHT22;9318;48.644;9.456;2024-02-26T07:06:15;6.70;99.90
18384;DHT22;9318;48.644;9.456;2024-02-26T07:08:41;6.70;99.90
18384;DHT22;9318;48.644;9.456;2024-02-26T07:11:08;6.70;99.90
18384;DHT22;9318;48.644;9.456;2024-02-26T07:13:36;6.70;99.90
18384;DHT22;9318;48.644;9.456;2024-02-26T07:16:04;6.60;99.90
18384;DHT22;9318;48.644;9.456;2024-02-26T07:18:31;6.70;99.90
18384;DHT22;9318;48.644;9.456;2024-02-26T07:20:58;6.70;99.90
18384;DHT22;9318;48.644;9.456;2024-02-26T07:23:27;6.70;99.90
18384;DHT22;9318;48.644;9.456;2024-02-26T07:25:54;6.70;99.90
18384;DHT22;9318;48.644;9.456;2024-02-26T07:28:21;6.70;99.90
18384;DHT22;9318;48.644;9.456;2024-02-26T07:30:49;6.80;99.90
18384;DHT22;9318;48.644;9.456;2024-02-26T07:33:16;6.80;99.90
18384;DHT22;9318;48.644;9.456;2024-02-26T07:35:43;6.80;99.90
18384;DHT22;9318;48.644;9.456;2024-02-26T07:38:09;6.80;99.90
18384;DHT22;9318;48.644;9.456;2024-02-26T07:40:36;6.90;99.90
18384;DHT22;9318;48.644;9.456;2024-02-26T07:43:03;6.90;99.90
18384;DHT22;9318;48.644;9.456;2024-02-26T07:45:30;7.00;99.90
18384;DHT22;9318;48.644;9.456;2024-02-26T07:47:58;7.00;99.90
18384;DHT22;9318;48.644;9.456;2024-02-26T07:50:25;7.00;99.90
18384;DHT22;9318;48.644;9.456;2024-02-26T07:52:52;7.10;99.90
18384;DHT22;9318;48.644;9.456;2024-02-26T07:55:19;7.10;99.90
18384;DHT22;9318;48.644;9.456;2024-02-26T07:57:46;7.10;99.90
18384;DHT22;9318;48.644;9.456;2024-02-26T08:00:13;7.10;99.90
18384;DHT22;9318;48.644;9.456;2024-02-26T08:02:42;7.10;99.90
18384;DHT22;9318;48.644;9.456;2024-02-26T08:05:10;7.10;99.90
18384;DHT22;9318;48.644;9.456;2024-02-26T08:07:37;7.10;99.90
18384;DHT22;9318;48.644;9.456;2024-02-26T08:10:04;7.10;99.90
18384;DHT22;9318;48.644;9.456;2024-02-26T08:12:31;7.20;99.90
18384;DHT22;9318;48.644;9.456;2024-02-26T08:14:58;7.30;99.90
18384;DHT22;9318;48.644;9.456;2024-02-26T08:17:25;7.30;99.90
18384;DHT22;9318;48.644;9.456;2024-02-26T08:19:53;7.30;99.90
18384;DHT22;9318;48.644;9.456;2024-02-26T08:22:21;7.30;99.90
18384;DHT22;9318;48.644;9.456;2024-02-26T08:24:47;7.40;99.90
18384;DHT22;9318;48.644;9.456;2024-02-26T08:27:14;7.40;99.90
18384;DHT22;9318;48.644;9.456;2024-02-26T08:29:41;7.50;99.90
18384;DHT22;9318;48.644;9.456;2024-02-26T08:32:08;7.60;99.90
18384;DHT22;9318;48.644;9.456;2024-02-26T08:34:35;7.70;99.90
18384;DHT22;9318;48.644;9.456;2024-02-26T08:37:02;7.80;99.90
18384;DHT22;9318;48.644;9.456;2024-02-26T08:39:30;7.80;99.90
18384;DHT22;9318;48.644;9.456;2024-02-26T08:41:56;7.90;99.90
18384;DHT22;9318;48.644;9.456;2024-02-26T08:44:23;7.90;99.90
18384;DHT22;9318;48.644;9.456;2024-02-26T08:46:51;7.90;99.90
18384;DHT22;9318;48.644;9.456;2024-02-26T08:49:18;7.90;99.90
18384;DHT22;9318;48.644;9.456;2024-02-26T08:51:45;7.90;99.90
18384;DHT22;9318;48.644;9.456;2024-02-26T08:54:12;7.90;99.90
18384;DHT22;9318;48.644;9.456;2024-02-26T08:56:40;7.80;99.90
18384;DHT22;9318;48.644;9.456;2024-02-26T08:59:06;8.00;99.90
18384;DHT22;9318;48.644;9.456;2024-02-26T09:01:33;8.00;99.90
18384;DHT22;9318;48.644;9.456;2024-02-26T09:04:00;8.10;99.90
18384;DHT22;9318;48.644;9.456;2024-02-26T09:06:28;8.10;99.90
18384;DHT22;9318;48.644;9.456;2024-02-26T09:08:55;8.20;99.90
18384;DHT22;9318;48.644;9.456;2024-02-26T09:11:21;8.20;99.90
18384;DHT22;9318;48.644;9.456;2024-02-26T09:13:49;8.30;99.90
18384;DHT22;9318;48.644;9.456;2024-02-26T09:16:16;8.40;99.90
18384;DHT22;9318;48.644;9.456;2024-02-26T09:18:43;8.60;99.90
18384;DHT22;9318;48.644;9.456;2024-02-26T09:21:10;8.70;99.90
18384;DHT22;9318;48.644;9.456;2024-02-26T09:23:36;8.70;99.90
18384;DHT22;9318;48.644;9.456;2024-02-26T09:26:05;8.60;99.90
18384;DHT22;9318;48.644;9.456;2024-02-26T09:28:32;8.60;99.90
18384;DHT22;9318;48.644;9.456;2024-02-26T09:31:04;8.50;99.90
18384;DHT22;9318;48.644;9.456;2024-02-26T09:33:31;8.50;99.90
18384;DHT22;9318;48.644;9.456;2024-02-26T09:35:58;8.40;99.90
18384;DHT22;9318;48.644;9.456;2024-02-26T09:38:25;8.40;99.90
18384;DHT22;9318;48.644;9.456;2024-02-26T09:40:52;8.50;99.90
18384;DHT22;9318;48.644;9.456;2024-02-26T09:43:21;8.50;99.90
18384;DHT22;9318;48.644;9.456;2024-02-26T09:45:50;8.50;99.90
18384;DHT22;9318;48.644;9.456;2024-02-26T09:48:18;8.50;99.90
18384;DHT22;9318;48.644;9.456;2024-02-26T09:50:45;8.50;99.90
18384;DHT22;9318;48.644;9.456;2024-02-26T09:53:13;8.40;99.90
18384;DHT22;9318;48.644;9.456;2024-02-26T09:55:40;8.40;99.90
18384;DHT22;9318;48.644;9.456;2024-02-26T09:58:07;8.50;99.90
18384;DHT22;9318;48.644;9.456;2024-02-26T10:00:37;8.60;99.90
18384;DHT22;9318;48.644;9.456;2024-02-26T10:03:05;8.80;99.90
18384;DHT22;9318;48.644;9.456;2024-02-26T10:05:34;8.80;99.90
18384;DHT22;9318;48.644;9.456;2024-02-26T10:08:01;8.90;99.90
18384;DHT22;9318;48.644;9.456;2024-02-26T10:10:30;8.90;99.90
18384;DHT22;9318;48.644;9.456;2024-02-26T10:12:59;9.00;99.90
18384;DHT22;9318;48.644;9.456;2024-02-26T10:15:26;9.10;99.90
18384;DHT22;9318;48.644;9.456;2024-02-26T10:17:53;9.20;99.90
18384;DHT22;9318;48.644;9.456;2024-02-26T10:20:21;9.40;99.90
18384;DHT22;9318;48.644;9.456;2024-02-26T10:22:50;9.60;99.90
18384;DHT22;9318;48.644;9.456;2024-02-26T10:25:17;10.00;99.90
18384;DHT22;9318;48.644;9.456;2024-02-26T10:27:45;10.50;99.90
18384;DHT22;9318;48.644;9.456;2024-02-26T10:30:17;11.20;99.90
18384;DHT22;9318;48.644;9.456;2024-02-26T10:32:45;11.70;99.90
18384;DHT22;9318;48.644;9.456;2024-02-26T10:35:12;11.90;99.90
18384;DHT22;9318;48.644;9.456;2024-02-26T10:37:40;12.10;99.90
18384;DHT22;9318;48.644;9.456;2024-02-26T10:40:10;12.20;99.90
18384;DHT22;9318;48.644;9.456;2024-02-26T10:42:37;12.50;99.90
18384;DHT22;9318;48.644;9.456;2024-02-26T10:45:05;12.80;99.90
18384;DHT22;9318;48.644;9.456;2024-02-26T10:47:32;13.10;99.90
18384;DHT22;9318;48.644;9.456;2024-02-26T10:50:00;13.40;99.90
18384;DHT22;9318;48.644;9.456;2024-02-26T10:52:31;13.50;99.90
18384;DHT22;9318;48.644;9.456;2024-02-26T10:55:00;13.70;99.90
18384;DHT22;9318;48.644;9.456;2024-02-26T10:57:33;13.90;99.90
18384;DHT22;9318;48.644;9.456;2024-02-26T11:00:01;13.90;99.90
18384;DHT22;9318;48.644;9.456;2024-02-26T11:02:31;13.70;99.90
18384;DHT22;9318;48.644;9.456;2024-02-26T11:04:59;13.80;99.90
18384;DHT22;9318;48.644;9.456;2024-02-26T11:07:26;13.90;99.90
18384;DHT22;9318;48.644;9.456;2024-02-26T11:09:55;13.90;99.90
18384;DHT22;9318;48.644;9.456;2024-02-26T11:12:22;13.70;99.90
18384;DHT22;9318;48.644;9.456;2024-02-26T11:14:52;13.60;99.90
18384;DHT22;9318;48.644;9.456;2024-02-26T11:17:21;13.40;99.90
18384;DHT22;9318;48.644;9.456;2024-02-26T11:19:49;13.30;99.90
18384;DHT22;9318;48.644;9.456;2024-02-26T11:22:17;13.20;99.90
18384;DHT22;9318;48.644;9.456;2024-02-26T11:24:44;13.00;99.90
18384;DHT22;9318;48.644;9.456;2024-02-26T11:27:11;12.80;99.90
18384;DHT22;9318;48.644;9.456;2024-02-26T11:29:41;12.70;99.90
18384;DHT22;9318;48.644;9.456;2024-02-26T11:32:10;12.80;99.90
18384;DHT22;9318;48.644;9.456;2024-02-26T11:34:38;12.80;99.90
18384;DHT22;9318;48.644;9.456;2024-02-26T11:37:12;12.80;99.90
18384;DHT22;9318;48.644;9.456;2024-02-26T11:39:40;12.80;99.90
18384;DHT22;9318;48.644;9.456;2024-02-26T11:42:07;12.80;99.90
18384;DHT22;9318;48.644;9.456;2024-02-26T11:44:35;12.80;99.90
18384;DHT22;9318;48.644;9.456;2024-02-26T11:47:11;12.80;99.90
18384;DHT22;9318;48.644;9.456;2024-02-26T11:49:38;12.80;99.90
18384;DHT22;9318;48.644;9.456;2024-02-26T11:52:08;12.90;99.90
18384;DHT22;9318;48.644;9.456;2024-02-26T11:54:45;12.90;99.90
18384;DHT22;9318;48.644;9.456;2024-02-26T11:57:22;13.00;99.90
18384;DHT22;9318;48.644;9.456;2024-02-26T11:59:49;13.10;99.90
18384;DHT22;9318;48.644;9.456;2024-02-26T12:02:41;13.10;99.90
18384;DHT22;9318;48.644;9.456;2024-02-26T12:05:11;13.00;99.90
18384;DHT22;9318;48.644;9.456;2024-02-26T12:07:40;12.90;99.90
18384;DHT22;9318;48.644;9.456;2024-02-26T12:10:27;13.00;99.90
18384;DHT22;9318;48.644;9.456;2024-02-26T12:12:58;13.00;99.90
18384;DHT22;9318;48.644;9.456;2024-02-26T12:15:32;13.00;99.90
18384;DHT22;9318;48.644;9.456;2024-02-26T12:18:02;13.10;99.90
18384;DHT22;9318;48.644;9.456;2024-02-26T12:20:30;13.20;99.90
18384;DHT22;9318;48.644;9.456;2024-02-26T12:22:57;13.30;99.90
18384;DHT22;9318;48.644;9.456;2024-02-26T12:25:25;13.50;99.90
18384;DHT22;9318;48.644;9.456;2024-02-26T12:27:53;13.70;99.90
18384;DHT22;9318;48.644;9.456;2024-02-26T12:30:21;13.80;99.90
18384;DHT22;9318;48.644;9.456;2024-02-26T12:32:52;13.90;99.90
18384;DHT22;9318;48.644;9.456;2024-02-26T12:35:24;14.00;99.90
18384;DHT22;9318;48.644;9.456;2024-02-26T12:38:04;14.00;99.90
18384;DHT22;9318;48.644;9.456;2024-02-26T12:40:31;14.10;99.90
18384;DHT22;9318;48.644;9.456;2024-02-26T12:42:58;14.10;99.90
18384;DHT22;9318;48.644;9.456;2024-02-26T12:45:25;14.00;99.90
18384;DHT22;9318;48.644;9.456;2024-02-26T12:47:53;14.00;99.90
18384;DHT22;9318;48.644;9.456;2024-02-26T12:50:20;14.00;99.90
18384;DHT22;9318;48.644;9.456;2024-02-26T12:52:49;14.00;99.90
18384;DHT22;9318;48.644;9.456;2024-02-26T12:55:19;14.00;99.90
18384;DHT22;9318;48.644;9.456;2024-02-26T12:57:46;13.90;99.90
18384;DHT22;9318;48.644;9.456;2024-02-26T13:00:17;13.90;99.90
18384;DHT22;9318;48.644;9.456;2024-02-26T13:02:44;13.90;99.90
18384;DHT22;9318;48.644;9.456;2024-02-26T13:05:13;13.90;99.90
18384;DHT22;9318;48.644;9.456;2024-02-26T13:07:43;14.00;99.90
18384;DHT22;9318;48.644;9.456;2024-02-26T13:10:11;14.10;99.90
18384;DHT22;9318;48.644;9.456;2024-02-26T13:12:43;14.20;99.90
18384;DHT22;9318;48.644;9.456;2024-02-26T13:15:15;14.30;99.90
18384;DHT22;9318;48.644;9.456;2024-02-26T13:17:43;14.40;99.90
18384;DHT22;9318;48.644;9.456;2024-02-26T13:20:10;14.40;99.90
18384;DHT22;9318;48.644;9.456;2024-02-26T13:22:37;14.40;99.90
18384;DHT22;9318;48.644;9.456;2024-02-26T13:25:04;14.40;99.90
18384;DHT22;9318;48.644;9.456;2024-02-26T13:27:34;14.30;99.90
18384;DHT22;9318;48.644;9.456;2024-02-26T13:30:06;14.30;99.90
18384;DHT22;9318;48.644;9.456;2024-02-26T13:32:36;14.30;99.90
18384;DHT22;9318;48.644;9.456;2024-02-26T13:35:07;14.30;99.90
18384;DHT22;9318;48.644;9.456;2024-02-26T13:37:34;14.20;99.90
18384;DHT22;9318;48.644;9.456;2024-02-26T13:40:04;14.20;99.90
18384;DHT22;9318;48.644;9.456;2024-02-26T13:42:31;14.10;99.90
18384;DHT22;9318;48.644;9.456;2024-02-26T13:44:59;14.10;99.90
18384;DHT22;9318;48.644;9.456;2024-02-26T13:47:26;14.20;99.90
18384;DHT22;9318;48.644;9.456;2024-02-26T13:49:53;14.20;99.90
18384;DHT22;9318;48.644;9.456;2024-02-26T13:52:20;14.30;99.90
18384;DHT22;9318;48.644;9.456;2024-02-26T13:54:46;14.30;99.90
18384;DHT22;9318;48.644;9.456;2024-02-26T13:57:13;14.20;99.90
18384;DHT22;9318;48.644;9.456;2024-02-26T13:59:40;14.10;99.90
18384;DHT22;9318;48.644;9.456;2024-02-26T14:02:09;14.10;99.90
18384;DHT22;9318;48.644;9.456;2024-02-26T14:04:36;14.10;99.90
18384;DHT22;9318;48.644;9.456;2024-02-26T14:07:03;14.30;99.90
18384;DHT22;9318;48.644;9.456;2024-02-26T14:09:30;14.30;99.90
18384;DHT22;9318;48.644;9.456;2024-02-26T14:11:57;14.30;99.90
18384;DHT22;9318;48.644;9.456;2024-02-26T14:14:24;14.20;99.90
18384;DHT22;9318;48.644;9.456;2024-02-26T14:16:51;14.30;99.90
18384;DHT22;9318;48.644;9.456;2024-02-26T14:19:19;14.30;99.90
18384;DHT22;9318;48.644;9.456;2024-02-26T14:21:46;14.30;99.90
18384;DHT22;9318;48.644;9.456;2024-02-26T14:24:13;14.50;99.90
18384;DHT22;9318;48.644;9.456;2024-02-26T14:26:40;14.50;99.90
18384;DHT22;9318;48.644;9.456;2024-02-26T14:29:07;14.60;99.90
18384;DHT22;9318;48.644;9.456;2024-02-26T14:31:34;14.70;99.90
18384;DHT22;9318;48.644;9.456;2024-02-26T14:34:01;14.70;99.90
18384;DHT22;9318;48.644;9.456;2024-02-26T14:36:29;14.60;99.90
18384;DHT22;9318;48.644;9.456;2024-02-26T14:38:56;14.60;99.90
18384;DHT22;9318;48.644;9.456;2024-02-26T14:41:22;14.40;99.90
18384;DHT22;9318;48.644;9.456;2024-02-26T14:43:49;14.50;99.90
18384;DHT22;9318;48.644;9.456;2024-02-26T14:46:16;14.60;99.90
18384;DHT22;9318;48.644;9.456;2024-02-26T14:48:43;14.70;99.90
18384;DHT22;9318;48.644;9.456;2024-02-26T14:51:09;14.70;99.90
18384;DHT22;9318;48.644;9.456;2024-02-26T14:53:38;14.70;99.90
18384;DHT22;9318;48.644;9.456;2024-02-26T14:56:04;14.60;99.90
18384;DHT22;9318;48.644;9.456;2024-02-26T14:58:31;14.50;99.90
18384;DHT22;9318;48.644;9.456;2024-02-26T15:00:58;14.40;99.90
18384;DHT22;9318;48.644;9.456;2024-02-26T15:03:25;14.30;99.90
18384;DHT22;9318;48.644;9.456;2024-02-26T15:05:51;14.30;99.90
18384;DHT22;9318;48.644;9.456;2024-02-26T15:08:18;14.20;99.90
18384;DHT22;9318;48.644;9.456;2024-02-26T15:10:46;14.10;99.90
18384;DHT22;9318;48.644;9.456;2024-02-26T15:13:13;14.00;99.90
18384;DHT22;9318;48.644;9.456;2024-02-26T15:15:41;14.00;99.90
18384;DHT22;9318;48.644;9.456;2024-02-26T15:18:08;13.90;99.90
18384;DHT22;9318;48.644;9.456;2024-02-26T15:20:37;13.90;99.90
18384;DHT22;9318;48.644;9.456;2024-02-26T15:23:04;13.80;99.90
18384;DHT22;9318;48.644;9.456;2024-02-26T15:25:31;13.60;99.90
18384;DHT22;9318;48.644;9.456;2024-02-26T15:28:00;13.50;99.90
18384;DHT22;9318;48.644;9.456;2024-02-26T15:30:27;13.40;99.90
18384;DHT22;9318;48.644;9.456;2024-02-26T15:32:54;13.40;99.90
18384;DHT22;9318;48.644;9.456;2024-02-26T15:35:21;13.30;99.90
18384;DHT22;9318;48.644;9.456;2024-02-26T15:37:48;13.30;99.90
18384;DHT22;9318;48.644;9.456;2024-02-26T15:40:15;13.30;99.90
18384;DHT22;9318;48.644;9.456;2024-02-26T15:42:42;13.20;99.90
18384;DHT22;9318;48.644;9.456;2024-02-26T15:45:11;13.20;99.90
18384;DHT22;9318;48.644;9.456;2024-02-26T15:47:37;13.10;99.90
18384;DHT22;9318;48.644;9.456;2024-02-26T15:50:05;13.10;99.90
18384;DHT22;9318;48.644;9.456;2024-02-26T15:52:32;13.10;99.90
18384;DHT22;9318;48.644;9.456;2024-02-26T15:54:59;13.00;99.90
18384;DHT22;9318;48.644;9.456;2024-02-26T15:57:25;12.90;99.90
18384;DHT22;9318;48.644;9.456;2024-02-26T15:59:52;12.80;99.90